Time;durP1;ratioP1;P1;durP2;ratioP2;P2;SDS_P1;SDS_P2;PMS_P1;PMS_P2;Temp;Humidity;BMP_temperature;BMP_pressure;BME280_temperature;BME280_humidity;BME280_pressure;Samples;Min_cycle;Max_cycle;Signal;HPM_P1;HPM_P2
2021/03/14 00:00:50;;;;;;;53.92;28.42;;;;;;;9.51;52.97;100425.55;1830060;78;21173;-75
2021/03/14 00:03:19;;;;;;;139.88;63.90;;;;;;;9.49;53.09;100441.39;1824529;78;21182;-75
2021/03/14 00:05:48;;;;;;;119.65;49.88;;;;;;;9.47;53.17;100432.69;1829503;77;21170;-83
2021/03/14 00:08:19;;;;;;;73.28;36.73;;;;;;;9.48;53.24;100433.87;1818037;78;21184;-80
2021/03/14 00:10:50;;;;;;;71.10;35.00;;;;;;;9.46;53.28;100441.21;1809151;78;21637;-78
2021/03/14 00:13:21;;;;;;;59.58;29.67;;;;;;;9.36;53.43;100433.27;1806247;78;21682;-80
2021/03/14 00:15:49;;;;;;;72.87;35.75;;;;;;;9.26;53.71;100435.63;1829239;78;21495;-81
2021/03/14 00:18:17;;;;;;;;;;;;;;;9.22;53.83;100432.91;1829370;78;21195;-82
2021/03/14 00:20:44;;;;;;;;;;;;;;;9.10;54.06;100426.45;1826929;78;20294;-76
2021/03/14 00:23:11;;;;;;;123.85;53.78;;;;;;;9.02;54.45;100430.36;1825378;78;20207;-78
2021/03/14 00:25:40;;;;;;;133.75;56.98;;;;;;;9.03;54.50;100423.18;1808179;78;21564;-81
2021/03/14 00:28:06;;;;;;;129.15;54.23;;;;;;;9.05;54.52;100420.72;1785668;78;21117;-77
2021/03/14 00:30:33;;;;;;;134.85;58.35;;;;;;;9.05;54.58;100420.72;1785039;78;21203;-81
2021/03/14 00:33:00;;;;;;;;;;;;;;;9.10;54.52;100417.09;1829631;78;21089;-79
2021/03/14 00:35:28;;;;;;;116.77;54.83;;;;;;;9.13;54.47;100415.97;1826820;78;20226;-79
2021/03/14 00:37:55;;;;;;;149.10;66.60;;;;;;;9.11;54.51;100402.74;1827122;78;21181;-78
2021/03/14 00:40:25;;;;;;;150.32;66.75;;;;;;;9.15;54.50;100401.95;1823357;78;21078;-79
2021/03/14 00:43:04;;;;;;;168.80;70.65;;;;;;;9.18;54.36;100403.00;1827229;78;21058;-78
2021/03/14 00:45:34;;;;;;;159.70;67.95;;;;;;;9.18;54.24;100405.67;1829140;78;21080;-79
2021/03/14 00:48:02;;;;;;;112.45;51.05;;;;;;;9.15;54.30;100405.96;1787728;78;21481;-78
2021/03/14 00:50:36;;;;;;;80.80;39.18;;;;;;;9.17;54.35;100407.14;1818890;78;21495;-83
2021/03/14 00:53:04;;;;;;;52.65;28.55;;;;;;;9.22;54.28;100407.52;1854686;76;21054;-82
2021/03/14 00:55:33;;;;;;;47.40;24.37;;;;;;;9.23;54.25;100387.84;1863520;76;21071;-80
2021/03/14 00:58:01;;;;;;;69.97;31.50;;;;;;;9.27;54.25;100386.05;1816473;78;21154;-81
2021/03/14 01:00:28;;;;;;;55.00;26.60;;;;;;;9.34;54.13;100399.64;1814734;79;21125;-80
2021/03/14 01:02:56;;;;;;;83.37;36.10;;;;;;;9.37;53.97;100397.52;1806481;78;21140;-78
2021/03/14 01:05:25;;;;;;;75.45;34.60;;;;;;;9.32;53.80;100398.97;1827001;78;21409;-77
2021/03/14 01:07:52;;;;;;;89.65;41.65;;;;;;;9.20;53.91;100389.48;1806922;78;21073;-80
2021/03/14 01:10:20;;;;;;;82.70;36.33;;;;;;;9.09;54.06;100402.56;1806465;78;21154;-78
2021/03/14 01:12:48;;;;;;;63.08;28.70;;;;;;;9.07;54.21;100394.67;1824275;78;21133;-85
2021/03/14 01:15:18;;;;;;;77.58;32.08;;;;;;;9.14;54.21;100391.77;1824597;77;21172;-82
2021/03/14 01:17:48;;;;;;;59.48;26.60;;;;;;;9.21;54.03;100392.48;1824582;77;21144;-79
2021/03/14 01:20:18;;;;;;;61.00;28.07;;;;;;;9.19;53.91;100384.62;1824462;78;21156;-80
2021/03/14 01:22:47;;;;;;;63.00;29.92;;;;;;;9.22;53.94;100398.17;1795003;78;21164;-83
2021/03/14 01:25:15;;;;;;;129.80;47.88;;;;;;;9.25;53.71;100395.20;1824468;78;21168;-79
2021/03/14 01:27:45;;;;;;;84.42;34.60;;;;;;;9.18;53.77;100394.14;1820990;78;21156;-79
2021/03/14 01:30:17;;;;;;;54.35;24.45;;;;;;;9.12;53.72;100391.05;1785858;78;21536;-78
2021/03/14 01:32:47;;;;;;;36.10;19.52;;;;;;;9.00;53.79;100387.44;1825002;78;21162;-84
2021/03/14 01:35:15;;;;;;;36.58;19.20;;;;;;;8.84;54.01;100379.55;1826338;78;21158;-82
2021/03/14 01:37:43;;;;;;;46.08;23.15;;;;;;;8.80;54.22;100381.34;1824484;78;21138;-79
2021/03/14 01:40:19;;;;;;;39.42;19.87;;;;;;;8.70;54.29;100365.87;1815947;78;21036;-80
2021/03/14 01:42:46;;;;;;;29.55;17.65;;;;;;;8.67;54.49;100356.81;1833583;78;21155;-78
2021/03/14 01:45:16;;;;;;;27.75;16.85;;;;;;;8.72;54.55;100362.54;1829492;78;21170;-81
2021/03/14 01:47:47;;;;;;;25.10;14.10;;;;;;;8.79;54.42;100354.30;1810761;78;21133;-82
2021/03/14 01:50:19;;;;;;;26.77;16.07;;;;;;;8.85;54.37;100364.37;1805351;78;21130;-82
2021/03/14 01:52:46;;;;;;;33.98;16.93;;;;;;;8.92;54.25;100360.13;1808967;78;21177;-80
2021/03/14 01:55:15;;;;;;;;;;;;;;;9.02;54.07;100357.38;1816445;77;21113;-79
2021/03/14 01:57:43;;;;;;;71.35;30.00;;;;;;;9.08;53.90;100365.66;1862135;76;20380;-79
2021/03/14 02:00:13;;;;;;;121.60;50.98;;;;;;;9.09;53.71;100371.34;1810777;78;21648;-81
2021/03/14 02:02:41;;;;;;;110.42;43.78;;;;;;;9.06;53.65;100366.78;1811889;78;21182;-84
2021/03/14 02:05:12;;;;;;;100.97;43.38;;;;;;;9.06;53.57;100363.61;1796600;78;21159;-78
2021/03/14 02:07:42;;;;;;;66.42;27.48;;;;;;;9.07;53.53;100363.11;1825318;78;21157;-78
2021/03/14 02:10:12;;;;;;;40.48;19.95;;;;;;;8.97;53.60;100365.85;1829222;78;21687;-79
2021/03/14 02:13:22;;;;;;;25.00;15.15;;;;;;;9.10;53.30;100361.48;1826334;78;21074;-81
2021/03/14 02:16:08;;;;;;;21.27;13.43;;;;;;;9.06;53.22;100358.27;1726651;82;21683;-81
2021/03/14 02:18:38;;;;;;;22.60;14.58;;;;;;;9.07;53.13;100372.47;1731844;82;21207;-81
2021/03/14 02:21:05;;;;;;;21.93;14.43;;;;;;;9.03;53.13;100363.91;1780038;78;21120;-80
2021/03/14 02:24:21;;;;;;;18.85;12.53;;;;;;;9.01;53.07;100365.90;1757194;78;21285;-77
2021/03/14 02:27:05;;;;;;;24.00;12.93;;;;;;;8.92;52.99;100361.45;1799071;78;21175;-79
2021/03/14 02:29:34;;;;;;;20.32;12.73;;;;;;;8.78;53.21;100363.30;1809502;78;21539;-75
2021/03/14 02:32:04;;;;;;;19.65;13.18;;;;;;;8.76;53.24;100369.27;1826095;78;21165;-81
2021/03/14 02:34:34;;;;;;;21.60;14.83;;;;;;;8.73;53.35;100365.58;1820057;78;21137;-77
2021/03/14 02:37:03;;;;;;;29.45;16.73;;;;;;;8.76;53.28;100371.94;1788101;78;21645;-79
2021/03/14 02:39:30;;;;;;;37.85;17.98;;;;;;;8.71;53.27;100371.05;1790698;78;21089;-79
2021/03/14 02:41:58;;;;;;;;;;;;;;;8.68;53.24;100373.20;1813667;78;21121;-78
2021/03/14 02:44:29;;;;;;;38.28;19.37;;;;;;;8.60;53.23;100381.44;1830697;78;28215;-80
2021/03/14 02:46:56;;;;;;;27.42;15.10;;;;;;;8.51;53.36;100386.82;1831039;78;21204;-78
2021/03/14 02:49:24;;;;;;;20.85;11.85;;;;;;;8.47;53.53;100391.61;1831829;78;21105;-84
2021/03/14 02:51:51;;;;;;;;;;;;;;;8.42;53.59;100388.54;1835228;78;21097;-78
2021/03/14 02:54:18;;;;;;;18.70;11.55;;;;;;;8.34;53.69;100388.39;1831084;78;20262;-81
2021/03/14 02:56:47;;;;;;;18.90;10.70;;;;;;;8.23;53.87;100390.75;1832390;78;21148;-78
2021/03/14 02:59:17;;;;;;;17.17;10.10;;;;;;;8.18;53.96;100392.17;1832323;78;21208;-82
2021/03/14 03:01:46;;;;;;;20.00;12.18;;;;;;;8.10;54.08;100393.72;1832354;78;21100;-80
2021/03/14 03:04:18;;;;;;;21.73;13.68;;;;;;;8.04;54.26;100382.77;1832337;78;21081;-84
2021/03/14 03:06:45;;;;;;;21.87;13.80;;;;;;;8.01;54.37;100388.41;1802659;78;21105;-79
2021/03/14 03:09:12;;;;;;;18.48;12.23;;;;;;;8.03;54.38;100386.42;1832557;78;21061;-80
2021/03/14 03:11:41;;;;;;;22.17;12.65;;;;;;;8.02;54.36;100388.26;1802885;78;21066;-80
2021/03/14 03:14:14;;;;;;;18.07;11.88;;;;;;;7.96;54.41;100385.34;1834177;78;21132;-77
2021/03/14 03:16:41;;;;;;;17.77;11.68;;;;;;;7.87;54.58;100387.87;1833220;78;22329;-78
2021/03/14 03:19:13;;;;;;;21.15;10.90;;;;;;;7.85;54.69;100388.98;1820176;78;21132;-78
2021/03/14 03:21:42;;;;;;;17.15;11.12;;;;;;;7.79;54.81;100386.40;1834371;78;21052;-81
2021/03/14 03:24:10;;;;;;;17.90;12.85;;;;;;;7.76;54.95;100392.00;1833350;78;21550;-78
2021/03/14 03:26:46;;;;;;;18.23;12.53;;;;;;;7.75;55.10;100395.66;1828121;77;21135;-77
2021/03/14 03:29:10;;;;;;;18.40;11.20;;;;;;;7.81;55.07;100395.58;1812477;77;21167;-79
2021/03/14 03:31:38;;;;;;;12.07;8.93;;;;;;;7.81;55.05;100391.58;1801809;78;21535;-79
2021/03/14 03:34:07;;;;;;;15.98;11.28;;;;;;;7.77;55.17;100394.20;1816860;77;21184;-79
2021/03/14 03:36:35;;;;;;;16.70;11.78;;;;;;;7.74;55.28;100388.66;1830961;77;21069;-81
2021/03/14 03:39:07;;;;;;;19.02;12.28;;;;;;;7.70;55.48;100381.08;1840792;76;21116;-76
2021/03/14 03:41:53;;;;;;;18.23;12.28;;;;;;;7.68;55.61;100387.05;1825558;78;21136;-77
2021/03/14 03:44:21;;;;;;;13.90;10.08;;;;;;;7.66;55.70;100384.52;1817255;78;21053;-79
2021/03/14 03:46:49;;;;;;;18.35;12.88;;;;;;;7.61;55.93;100390.77;1822795;77;21147;-81
2021/03/14 03:49:22;;;;;;;18.52;13.18;;;;;;;7.54;56.11;100389.63;1829157;77;21149;-76
2021/03/14 03:51:51;;;;;;;19.40;13.50;;;;;;;7.43;56.41;100397.28;1826146;77;21061;-80
2021/03/14 03:54:18;;;;;;;19.23;12.30;;;;;;;7.46;56.62;100398.34;1794051;77;21157;-80
2021/03/14 03:56:45;;;;;;;;;;;;;;;7.46;56.70;100402.34;1833542;77;21206;-78
2021/03/14 03:59:12;;;;;;;18.37;11.75;;;;;;;7.49;56.78;100397.20;1814285;77;20205;-78
2021/03/14 04:01:40;;;;;;;;;;;;;;;7.48;56.89;100395.03;1818086;79;21556;-77
2021/03/14 04:04:08;;;;;;;16.62;10.93;;;;;;;7.50;56.91;100403.75;1816863;78;20220;-76
2021/03/14 04:06:35;;;;;;;19.48;13.30;;;;;;;7.45;56.97;100392.67;1794943;78;21067;-74
2021/03/14 04:09:02;;;;;;;23.67;13.53;;;;;;;7.41;57.12;100401.92;1817993;78;21126;-83
2021/03/14 04:11:29;;;;;;;20.52;13.78;;;;;;;7.43;57.24;100399.94;1775717;80;21133;-80
2021/03/14 04:13:56;;;;;;;;;;;;;;;7.48;57.30;100396.36;1793420;78;21167;-80
2021/03/14 04:16:23;;;;;;;24.87;15.13;;;;;;;7.54;57.34;100393.16;1822633;78;20479;-79
2021/03/14 04:18:51;;;;;;;26.50;15.63;;;;;;;7.60;57.29;100387.75;1800272;78;21516;-82
2021/03/14 04:21:19;;;;;;;20.10;12.05;;;;;;;7.65;57.28;100386.00;1809782;78;21573;-79
2021/03/14 04:23:51;;;;;;;21.68;13.70;;;;;;;7.64;57.25;100390.48;1811986;78;21200;-79
2021/03/14 04:26:20;;;;;;;23.85;15.03;;;;;;;7.63;57.27;100393.65;1788554;78;21136;-79
2021/03/14 04:28:48;;;;;;;22.55;14.70;;;;;;;7.59;57.38;100388.74;1816123;78;21118;-80
2021/03/14 04:31:15;;;;;;;22.65;13.58;;;;;;;7.63;57.41;100392.31;1831535;77;21690;-80
2021/03/14 04:33:42;;;;;;;25.32;14.07;;;;;;;7.68;57.38;100392.39;1757243;78;21035;-78
2021/03/14 04:36:10;;;;;;;20.72;12.65;;;;;;;7.65;57.37;100388.66;1827699;77;21604;-81
2021/03/14 04:38:39;;;;;;;26.65;15.03;;;;;;;7.69;57.34;100398.91;1823382;78;21194;-80
2021/03/14 04:41:06;;;;;;;28.25;16.70;;;;;;;7.70;57.29;100385.08;1821049;78;21548;-80
2021/03/14 04:43:34;;;;;;;25.88;14.05;;;;;;;7.72;57.36;100389.30;1758241;78;21110;-80
2021/03/14 04:46:01;;;;;;;21.90;12.07;;;;;;;7.79;57.22;100377.56;1805186;78;21085;-78
2021/03/14 04:48:31;;;;;;;26.85;15.10;;;;;;;7.71;57.23;100380.09;1812527;77;21105;-82
2021/03/14 04:50:58;;;;;;;26.10;15.03;;;;;;;7.60;57.34;100387.26;1824268;78;21145;-81
2021/03/14 04:53:27;;;;;;;;;;;;;;;7.56;57.51;100384.52;1797294;78;21136;-81
2021/03/14 04:55:54;;;;;;;24.12;13.25;;;;;;;7.51;57.63;100386.77;1823563;78;20261;-77
2021/03/14 04:58:22;;;;;;;;;;;;;;;7.46;57.78;100389.02;1846864;76;21051;-80
2021/03/14 05:00:51;;;;;;;18.45;11.05;;;;;;;7.40;57.96;100394.05;1823708;76;20276;-79
2021/03/14 05:03:23;;;;;;;24.18;14.28;;;;;;;7.34;58.18;100387.45;1793806;78;21189;-82
2021/03/14 05:05:51;;;;;;;22.05;14.15;;;;;;;7.32;58.32;100388.94;1823067;78;21601;-78
2021/03/14 05:08:22;;;;;;;24.45;16.12;;;;;;;7.43;58.30;100391.95;1823085;77;21212;-78
2021/03/14 05:10:51;;;;;;;21.12;13.35;;;;;;;7.49;58.21;100401.20;1823165;78;21173;-77
2021/03/14 05:13:19;;;;;;;23.02;14.10;;;;;;;7.52;58.13;100403.10;1823331;78;21782;-79
2021/03/14 05:15:50;;;;;;;;;;;;;;;7.54;58.14;100403.82;1830944;77;21651;-80
2021/03/14 05:18:18;;;;;;;15.18;9.60;;;;;;;7.57;58.17;100396.86;1824669;77;20545;-80
2021/03/14 05:20:47;;;;;;;22.85;14.23;;;;;;;7.62;58.18;100401.27;1823149;78;21686;-81
2021/03/14 05:23:14;;;;;;;23.38;13.62;;;;;;;7.67;58.13;100396.02;1822916;78;21161;-78
2021/03/14 05:25:44;;;;;;;22.02;13.70;;;;;;;7.73;57.99;100395.47;1823054;78;21161;-80
2021/03/14 05:28:12;;;;;;;25.45;14.98;;;;;;;7.73;57.99;100402.97;1793466;78;21157;-81
2021/03/14 05:30:40;;;;;;;16.20;10.95;;;;;;;7.76;57.94;100399.16;1822827;78;21510;-79
2021/03/14 05:33:08;;;;;;;23.15;13.83;;;;;;;7.78;57.93;100403.88;1823219;78;21651;-81
2021/03/14 05:35:35;;;;;;;;;;;;;;;7.79;57.92;100402.89;1771021;77;21157;-78
2021/03/14 05:38:02;;;;;;;30.27;16.32;;;;;;;7.76;57.89;100393.34;1824130;78;20470;-80
2021/03/14 05:40:29;;;;;;;;;;;;;;;7.73;58.00;100396.80;1827284;78;21140;-84
2021/03/14 05:42:57;;;;;;;29.80;16.52;;;;;;;7.77;58.02;100395.05;1816570;78;20552;-79
2021/03/14 05:45:25;;;;;;;21.87;12.80;;;;;;;7.81;58.00;100398.24;1790027;78;21089;-81
2021/03/14 05:47:52;;;;;;;20.50;12.35;;;;;;;7.83;58.00;100390.47;1769638;78;21152;-81
2021/03/14 05:50:23;;;;;;;27.98;15.65;;;;;;;7.86;57.94;100390.19;1824538;78;21619;-80
2021/03/14 05:52:57;;;;;;;25.60;13.80;;;;;;;7.87;57.99;100391.87;1824227;78;21163;-81
2021/03/14 05:55:25;;;;;;;20.88;13.48;;;;;;;7.94;57.96;100393.45;1791326;80;21163;-77
2021/03/14 05:57:55;;;;;;;23.60;13.98;;;;;;;7.95;57.89;100385.83;1792320;80;21138;-79
2021/03/14 06:00:26;;;;;;;20.65;12.37;;;;;;;8.00;57.96;100383.58;1792229;80;21174;-78
2021/03/14 06:03:01;;;;;;;22.45;13.40;;;;;;;8.08;57.87;100380.16;1795964;78;21124;-80
2021/03/14 06:05:31;;;;;;;17.80;11.20;;;;;;;8.09;57.76;100385.38;1815419;78;21368;-82
2021/03/14 06:07:59;;;;;;;15.48;10.80;;;;;;;8.10;57.73;100380.38;1803444;78;21204;-78
2021/03/14 06:10:28;;;;;;;14.85;10.15;;;;;;;8.09;57.69;100387.20;1792497;80;21211;-79
2021/03/14 06:12:55;;;;;;;;;;;;;;;8.03;57.80;100391.77;1794680;80;21207;-82
2021/03/14 06:15:22;;;;;;;14.33;9.60;;;;;;;7.98;57.87;100398.86;1791527;80;20281;-83
2021/03/14 06:17:49;;;;;;;;;;;;;;;7.91;58.05;100392.43;1793945;80;21160;-82
2021/03/14 06:20:41;;;;;;;15.58;9.48;;;;;;;7.88;58.17;100395.38;1792865;80;20226;-80
2021/03/14 06:23:15;;;;;;;13.90;9.85;;;;;;;7.98;57.98;100394.86;1792215;80;21650;-78
2021/03/14 06:25:49;;;;;;;16.32;11.10;;;;;;;8.01;58.01;100382.58;1793994;80;21313;-75
2021/03/14 06:28:16;;;;;;;13.45;9.78;;;;;;;7.88;58.29;100383.37;1765872;80;21171;-82
2021/03/14 06:30:44;;;;;;;13.38;9.30;;;;;;;7.90;58.49;100386.72;1791929;80;21139;-76
2021/03/14 06:33:16;;;;;;;10.38;7.87;;;;;;;7.95;58.45;100378.30;1791505;80;39035;-78
2021/03/14 06:35:47;;;;;;;12.93;9.65;;;;;;;8.02;58.45;100382.92;1791292;80;21242;-82
2021/03/14 06:38:28;;;;;;;14.13;10.15;;;;;;;8.06;58.36;100384.81;1814461;78;21183;-80
2021/03/14 06:41:21;;;;;;;15.28;11.15;;;;;;;8.09;58.27;100378.70;1822092;77;21155;-81
2021/03/14 06:43:52;;;;;;;17.30;11.38;;;;;;;8.12;58.19;100375.73;1791814;80;21681;-79
2021/03/14 06:46:31;;;;;;;14.40;10.25;;;;;;;8.16;58.10;100389.63;1791660;80;21183;-82
2021/03/14 06:49:10;;;;;;;16.05;11.45;;;;;;;8.21;58.11;100385.19;1792127;80;21222;-78
2021/03/14 06:51:43;;;;;;;18.52;12.70;;;;;;;8.23;58.14;100388.58;1792804;80;21168;-82
2021/03/14 06:54:19;;;;;;;14.90;10.38;;;;;;;8.27;58.18;100391.30;1782961;80;21206;-80
2021/03/14 06:57:15;;;;;;;17.02;10.88;;;;;;;8.31;58.16;100386.00;1791621;80;21168;-77
2021/03/14 06:59:54;;;;;;;15.38;11.05;;;;;;;8.29;58.16;100391.98;1791639;80;21176;-80
2021/03/14 07:02:28;;;;;;;15.45;11.40;;;;;;;8.29;58.28;100386.65;1791660;80;21491;-79
2021/03/14 07:05:01;;;;;;;19.02;11.93;;;;;;;8.29;58.32;100386.16;1792059;80;21547;-79
2021/03/14 07:07:33;;;;;;;13.60;8.93;;;;;;;8.36;58.33;100394.44;1790936;80;21175;-82
2021/03/14 07:10:11;;;;;;;18.82;12.20;;;;;;;8.41;58.24;100393.53;1791366;80;21623;-78
2021/03/14 07:12:47;;;;;;;21.17;13.72;;;;;;;8.43;58.18;100390.70;1763525;80;21187;-79
2021/03/14 07:15:18;;;;;;;20.25;13.60;;;;;;;8.43;58.18;100396.88;1792534;80;21832;-82
2021/03/14 07:17:58;;;;;;;14.38;9.75;;;;;;;8.46;58.19;100393.09;1793316;80;21460;-80
2021/03/14 07:20:28;;;;;;;13.98;9.33;;;;;;;8.50;58.13;100392.66;1797086;77;21175;-76
2021/03/14 07:23:03;;;;;;;13.20;9.43;;;;;;;8.51;58.11;100388.16;1824494;78;21706;-79
2021/03/14 07:25:36;;;;;;;16.75;10.82;;;;;;;8.54;58.06;100395.39;1812455;77;21135;-79
2021/03/14 07:28:04;;;;;;;15.15;10.05;;;;;;;8.52;58.10;100392.00;1793722;78;21194;-81
2021/03/14 07:30:31;;;;;;;15.80;10.30;;;;;;;8.51;58.14;100397.50;1804432;79;21169;-78
2021/03/14 07:32:58;;;;;;;;;;;;;;;8.51;58.25;100393.50;1799661;78;21168;-77
2021/03/14 07:35:26;;;;;;;21.87;12.63;;;;;;;8.59;58.22;100389.11;1772631;80;20614;-82
2021/03/14 07:37:55;;;;;;;22.65;14.07;;;;;;;8.67;58.16;100387.52;1790764;79;21652;-79
2021/03/14 07:40:29;;;;;;;19.60;12.33;;;;;;;8.78;58.10;100392.67;1790999;79;21192;-84
2021/03/14 07:42:57;;;;;;;19.57;11.38;;;;;;;8.87;57.82;100387.78;1790624;80;21174;-81
2021/03/14 07:45:24;;;;;;;15.63;10.25;;;;;;;8.94;57.72;100388.84;1791695;77;21185;-78
2021/03/14 07:47:52;;;;;;;16.42;10.78;;;;;;;8.95;57.57;100391.89;1739561;78;21160;-78
2021/03/14 07:50:34;;;;;;;16.00;11.03;;;;;;;8.96;57.47;100384.22;1817169;78;21482;-81
2021/03/14 07:53:09;;;;;;;21.17;12.40;;;;;;;8.99;57.47;100380.38;1807037;77;21151;-78
2021/03/14 07:55:37;;;;;;;16.52;10.85;;;;;;;9.02;57.37;100374.75;1812100;78;21113;-81
2021/03/14 07:58:04;;;;;;;17.57;10.63;;;;;;;9.02;57.37;100374.25;1811919;79;21438;-79
2021/03/14 08:00:35;;;;;;;17.62;11.65;;;;;;;9.05;57.29;100367.78;1812914;79;21137;-82
2021/03/14 08:03:09;;;;;;;16.67;12.40;;;;;;;9.02;57.33;100360.89;1813456;79;21113;-78
2021/03/14 08:05:45;;;;;;;14.93;10.80;;;;;;;9.03;57.39;100366.58;1814535;79;21189;-77
2021/03/14 08:08:26;;;;;;;15.35;10.30;;;;;;;9.08;57.38;100364.32;1813700;79;21396;-77
2021/03/14 08:10:54;;;;;;;16.42;12.00;;;;;;;9.10;57.35;100352.97;1791829;79;21173;-78
2021/03/14 08:13:36;;;;;;;16.82;12.43;;;;;;;9.14;57.30;100358.36;1812583;79;21181;-81
2021/03/14 08:16:06;;;;;;;15.50;11.03;;;;;;;9.19;57.30;100351.22;1815525;77;21156;-79
2021/03/14 08:18:46;;;;;;;16.50;10.95;;;;;;;9.25;57.22;100361.80;1831713;77;21233;-83
2021/03/14 08:21:28;;;;;;;18.45;12.15;;;;;;;9.28;57.12;100354.32;1799334;78;21560;-81
2021/03/14 08:23:58;;;;;;;21.95;13.95;;;;;;;9.29;57.14;100348.47;1798170;79;21164;-80
2021/03/14 08:26:29;;;;;;;18.00;12.07;;;;;;;9.31;57.15;100347.34;1819028;78;21190;-81
2021/03/14 08:29:10;;;;;;;22.30;13.62;;;;;;;9.41;57.14;100343.25;1815894;79;21199;-80
2021/03/14 08:31:53;;;;;;;17.65;11.75;;;;;;;9.46;57.08;100344.97;1819622;77;21200;-77
2021/03/14 08:34:32;;;;;;;19.98;11.65;;;;;;;9.51;57.05;100339.16;1802255;79;21173;-78
2021/03/14 08:37:02;;;;;;;21.68;13.13;;;;;;;9.55;56.99;100348.55;1814432;79;21196;-81
2021/03/14 08:39:38;;;;;;;24.35;13.90;;;;;;;9.53;57.04;100339.33;1814695;79;21165;-80
2021/03/14 08:42:07;;;;;;;19.85;13.75;;;;;;;9.57;57.14;100339.36;1786815;79;21212;-78
2021/03/14 08:44:45;;;;;;;18.20;11.83;;;;;;;9.65;57.10;100346.63;1815927;79;21208;-78
2021/03/14 08:47:15;;;;;;;18.60;12.30;;;;;;;9.75;56.94;100342.52;1814072;79;21180;-80
2021/03/14 08:49:47;;;;;;;16.17;10.85;;;;;;;9.82;56.58;100338.23;1814943;79;21101;-79
2021/03/14 08:52:17;;;;;;;20.68;12.98;;;;;;;9.87;56.55;100339.44;1812194;78;21398;-75
2021/03/14 08:54:54;;;;;;;19.10;12.80;;;;;;;9.88;56.42;100346.46;1815339;78;21359;-77
2021/03/14 08:57:24;;;;;;;20.90;12.43;;;;;;;9.90;56.35;100348.97;1795688;78;21191;-80
2021/03/14 08:59:56;;;;;;;16.73;11.78;;;;;;;9.90;56.23;100344.95;1787962;80;21184;-78
2021/03/14 09:02:30;;;;;;;17.20;12.00;;;;;;;9.89;56.24;100343.28;1793881;78;21179;-81
2021/03/14 09:05:15;;;;;;;15.78;10.18;;;;;;;9.86;56.34;100335.09;1823028;78;21172;-84
2021/03/14 09:08:01;;;;;;;16.60;11.25;;;;;;;9.86;56.40;100330.24;1823062;78;21400;-79
2021/03/14 09:10:34;;;;;;;17.17;11.78;;;;;;;9.84;56.47;100341.08;1822219;78;21213;-81
2021/03/14 09:13:28;;;;;;;16.65;12.33;;;;;;;9.83;56.51;100339.91;1838482;77;21165;-80
2021/03/14 09:16:12;;;;;;;16.82;11.68;;;;;;;9.84;56.53;100336.23;1830237;77;21778;-81
2021/03/14 09:18:48;;;;;;;14.75;9.95;;;;;;;9.88;56.64;100334.92;1795641;78;21196;-80
2021/03/14 09:21:17;;;;;;;18.20;10.85;;;;;;;9.93;56.60;100328.59;1828539;78;21667;-80
2021/03/14 09:23:46;;;;;;;17.73;12.15;;;;;;;9.95;56.54;100325.76;1827900;78;21219;-78
2021/03/14 09:26:29;;;;;;;18.87;13.10;;;;;;;9.90;56.62;100327.09;1828360;78;21224;-80
2021/03/14 09:29:07;;;;;;;20.37;12.45;;;;;;;9.86;56.71;100335.09;1827153;78;21188;-81
2021/03/14 09:31:44;;;;;;;17.37;12.75;;;;;;;9.84;56.81;100330.88;1830051;78;21181;-76
2021/03/14 09:34:20;;;;;;;17.65;12.23;;;;;;;9.80;56.95;100327.67;1800685;78;21162;-78
2021/03/14 09:36:50;;;;;;;17.73;12.60;;;;;;;9.83;57.06;100323.86;1800062;78;21719;-78
2021/03/14 09:39:24;;;;;;;17.30;12.53;;;;;;;9.87;57.02;100326.56;1818210;78;21113;-80
2021/03/14 09:41:55;;;;;;;15.25;10.80;;;;;;;9.86;56.99;100331.08;1808825;78;21219;-80
2021/03/14 09:44:27;;;;;;;23.20;15.30;;;;;;;9.91;57.01;100330.61;1795648;79;21164;-79
2021/03/14 09:47:01;;;;;;;16.77;11.97;;;;;;;9.91;56.93;100327.43;1806242;78;21608;-78
2021/03/14 09:49:39;;;;;;;16.70;11.20;;;;;;;9.94;57.08;100324.92;1813170;79;21184;-77
2021/03/14 09:52:09;;;;;;;18.73;12.45;;;;;;;10.02;56.93;100330.83;1823685;78;21205;-80
2021/03/14 09:54:36;;;;;;;15.68;10.50;;;;;;;10.04;56.71;100327.52;1786985;79;21185;-84
2021/03/14 09:57:04;;;;;;;17.40;11.25;;;;;;;10.03;56.63;100323.97;1806566;79;21221;-81
2021/03/14 09:59:42;;;;;;;17.35;11.12;;;;;;;10.00;56.64;100326.98;1770462;78;21169;-81
2021/03/14 10:02:17;;;;;;;18.75;12.07;;;;;;;10.00;56.64;100314.95;1806049;79;21137;-79
2021/03/14 10:04:48;;;;;;;15.80;9.73;;;;;;;10.03;56.64;100327.98;1812934;78;21122;-77
2021/03/14 10:07:24;;;;;;;20.12;12.78;;;;;;;10.05;56.52;100330.03;1808984;79;21133;-81
2021/03/14 10:09:52;;;;;;;18.45;11.15;;;;;;;10.04;56.58;100315.48;1765131;79;21198;-77
2021/03/14 10:12:22;;;;;;;17.52;11.00;;;;;;;10.12;56.50;100329.72;1775119;79;21116;-75
2021/03/14 10:14:50;;;;;;;17.75;11.97;;;;;;;10.18;56.39;100326.09;1804936;78;21200;-80
2021/03/14 10:17:18;;;;;;;19.00;12.45;;;;;;;10.21;56.38;100310.53;1742880;78;21570;-79
2021/03/14 10:19:46;;;;;;;21.73;12.95;;;;;;;10.26;56.29;100315.44;1823257;78;21189;-81
2021/03/14 10:22:33;;;;;;;17.87;11.20;;;;;;;10.28;56.29;100302.75;1791724;78;21220;-79
2021/03/14 10:25:06;;;;;;;16.12;11.28;;;;;;;10.33;56.19;100311.13;1780155;78;21468;-78
2021/03/14 10:27:35;;;;;;;16.20;11.00;;;;;;;10.29;56.19;100306.59;1822661;78;21133;-78
2021/03/14 10:30:05;;;;;;;16.15;11.12;;;;;;;10.25;56.32;100302.55;1798552;78;21128;-83
2021/03/14 10:32:45;;;;;;;17.47;10.33;;;;;;;10.26;56.55;100296.70;1832704;78;21067;-78
2021/03/14 10:35:14;;;;;;;14.68;9.88;;;;;;;10.26;56.55;100296.70;1826809;78;21577;-76
2021/03/14 10:37:42;;;;;;;14.43;10.45;;;;;;;10.27;56.57;100293.05;1811343;79;21446;-81
2021/03/14 10:40:14;;;;;;;15.15;10.65;;;;;;;10.27;56.66;100284.52;1809215;79;21236;-81
2021/03/14 10:42:44;;;;;;;13.85;9.45;;;;;;;10.27;56.65;100289.87;1785649;79;21090;-79
2021/03/14 10:45:22;;;;;;;16.60;10.98;;;;;;;10.25;56.74;100292.35;1811000;79;21085;-81
2021/03/14 10:48:04;;;;;;;17.52;10.43;;;;;;;10.24;56.84;100283.48;1816221;78;21132;-78
2021/03/14 10:50:40;;;;;;;14.13;9.90;;;;;;;10.33;56.84;100287.05;1812937;78;21131;-79
2021/03/14 10:53:19;;;;;;;14.18;10.32;;;;;;;10.39;56.81;100283.20;1840480;77;21461;-78
2021/03/14 10:56:08;;;;;;;19.62;12.45;;;;;;;10.41;56.73;100284.41;1830066;78;21206;-82
2021/03/14 10:58:41;;;;;;;17.32;11.10;;;;;;;10.42;56.69;100282.06;1790186;78;21187;-81
2021/03/14 11:01:16;;;;;;;20.37;12.18;;;;;;;10.46;56.74;100276.72;1790336;77;21129;-78
2021/03/14 11:03:42;;;;;;;18.70;13.32;;;;;;;10.49;56.62;100277.75;1833151;77;21209;-78
2021/03/14 11:06:19;;;;;;;19.82;12.80;;;;;;;10.47;56.66;100277.05;1819796;78;21236;-79
2021/03/14 11:09:02;;;;;;;19.23;12.37;;;;;;;10.47;56.71;100262.33;1762752;78;21196;-79
2021/03/14 11:11:43;;;;;;;18.45;11.75;;;;;;;10.50;56.68;100267.36;1823594;78;21145;-77
2021/03/14 11:14:36;;;;;;;18.10;11.53;;;;;;;10.48;56.75;100263.99;1815754;78;21205;-77
2021/03/14 11:17:17;;;;;;;20.25;12.73;;;;;;;10.46;56.83;100259.31;1822544;78;21085;-77
2021/03/14 11:20:07;;;;;;;20.92;12.15;;;;;;;10.45;56.84;100250.12;1823264;78;21442;-77
2021/03/14 11:22:36;;;;;;;16.42;10.90;;;;;;;10.44;56.87;100260.47;1812095;78;21222;-79
2021/03/14 11:25:06;;;;;;;19.48;12.90;;;;;;;10.45;56.85;100260.83;1801956;78;21055;-78
2021/03/14 11:27:33;;;;;;;20.20;12.10;;;;;;;10.41;56.87;100252.27;1805814;78;21127;-76
2021/03/14 11:30:01;;;;;;;19.45;12.58;;;;;;;10.35;56.95;100245.70;1831910;78;21358;-79
2021/03/14 11:32:29;;;;;;;21.45;12.40;;;;;;;10.29;57.08;100245.52;1807870;78;21155;-78
2021/03/14 11:34:59;;;;;;;19.48;11.78;;;;;;;10.28;57.18;100247.37;1813124;79;21204;-79
2021/03/14 11:37:45;;;;;;;17.82;11.10;;;;;;;10.28;57.22;100246.03;1822969;77;21152;-80
2021/03/14 11:40:33;;;;;;;18.23;12.30;;;;;;;10.30;57.25;100237.83;1787105;80;21180;-78
2021/03/14 11:43:04;;;;;;;18.45;12.65;;;;;;;10.32;57.23;100239.86;1811628;78;21655;-79